createdAt,value
2019-02-19T00:00:59.242Z,4.44
2019-02-19T00:01:59.038Z,4.5
2019-02-19T00:03:00.742Z,4.44
2019-02-19T00:03:59.353Z,4.5
2019-02-19T00:04:59.143Z,4.44
2019-02-19T00:05:59.270Z,4.44
2019-02-19T00:06:59.157Z,4.44
2019-02-19T00:07:59.172Z,4.44
2019-02-19T00:08:59.155Z,4.5
2019-02-19T00:09:59.226Z,4.5
2019-02-19T00:10:59.253Z,4.5
2019-02-19T00:11:59.772Z,4.5
2019-02-19T00:12:59.100Z,4.5
2019-02-19T00:13:59.018Z,4.5
2019-02-19T00:15:08.877Z,4.5
2019-02-19T00:15:59.210Z,4.5
2019-02-19T00:16:59.153Z,4.5
2019-02-19T00:17:59.096Z,4.5
2019-02-19T00:18:59.020Z,4.5
2019-02-19T00:19:59.143Z,4.44
2019-02-19T00:20:59.253Z,4.44
2019-02-19T00:21:58.997Z,4.37
2019-02-19T00:22:59.258Z,4.31
2019-02-19T00:23:59.090Z,4.25
2019-02-19T00:24:59.192Z,4.19
2019-02-19T00:25:59.193Z,4.19
2019-02-19T00:26:59.197Z,4.12
2019-02-19T00:27:58.948Z,4.06
2019-02-19T00:28:59.070Z,4.12
2019-02-19T00:29:59.109Z,4.06
2019-02-19T00:30:59.175Z,4.06
2019-02-19T00:32:00.702Z,4
2019-02-19T00:32:58.712Z,4.06
2019-02-19T00:33:59.742Z,4
2019-02-19T00:34:59.162Z,4
2019-02-19T00:35:59.308Z,4.06
2019-02-19T00:36:58.941Z,4
2019-02-19T00:37:58.885Z,4
2019-02-19T00:39:00.741Z,4.06
2019-02-19T00:39:59.068Z,4
2019-02-19T00:40:59.721Z,4
2019-02-19T00:41:59.092Z,4
2019-02-19T00:42:59.203Z,4
2019-02-19T00:43:59.100Z,4
2019-02-19T00:44:59.072Z,4
2019-02-19T00:45:59.122Z,4
2019-02-19T00:46:59.135Z,3.94
2019-02-19T00:47:58.820Z,3.94
2019-02-19T00:48:58.807Z,3.94
2019-02-19T00:49:59.132Z,3.87
2019-02-19T00:50:58.813Z,3.87
2019-02-19T00:52:00.674Z,3.94
2019-02-19T00:52:59.067Z,3.87
2019-02-19T00:53:59.170Z,3.94
2019-02-19T00:55:00.441Z,3.94
2019-02-19T00:55:59.582Z,3.87
2019-02-19T00:56:59.032Z,3.87
2019-02-19T00:57:58.836Z,3.87
2019-02-19T00:58:58.805Z,3.87
2019-02-19T00:59:59.050Z,3.87
2019-02-19T01:00:58.839Z,3.94
2019-02-19T01:01:59.133Z,3.94
2019-02-19T01:02:58.830Z,3.94
2019-02-19T01:03:59.078Z,3.94
2019-02-19T01:04:59.246Z,4
2019-02-19T01:05:59.036Z,4
2019-02-19T01:06:58.842Z,4
2019-02-19T01:07:59.149Z,3.94
2019-02-19T01:08:59.689Z,3.94
2019-02-19T01:09:58.813Z,3.94
2019-02-19T01:10:58.917Z,3.94
2019-02-19T01:12:00.644Z,3.94
2019-02-19T01:12:59.230Z,3.94
2019-02-19T01:13:58.815Z,3.94
2019-02-19T01:14:59.146Z,3.94
2019-02-19T01:15:59.418Z,3.87
2019-02-19T01:16:59.942Z,3.94
2019-02-19T01:18:00.627Z,3.87
2019-02-19T01:18:58.769Z,3.87
2019-02-19T01:19:59.138Z,3.87
2019-02-19T01:20:59.134Z,3.94
2019-02-19T01:21:59.145Z,3.94
2019-02-19T01:22:59.353Z,3.87
2019-02-19T01:23:58.850Z,3.94
2019-02-19T01:24:59.265Z,3.94
2019-02-19T01:25:59.169Z,3.94
2019-02-19T01:26:58.762Z,4
2019-02-19T01:27:59.185Z,4
2019-02-19T01:28:59.103Z,4
2019-02-19T01:29:59.132Z,4.06
2019-02-19T01:30:58.855Z,4.06
2019-02-19T01:31:59.013Z,4.06
2019-02-19T01:32:58.782Z,4.06
2019-02-19T01:33:59.143Z,4.12
2019-02-19T01:34:59.144Z,4.06
2019-02-19T01:35:58.782Z,4.12
2019-02-19T01:36:59.904Z,4.12
2019-02-19T01:37:59.970Z,4.12
2019-02-19T01:38:59.686Z,4.19
2019-02-19T01:39:58.917Z,4.19
2019-02-19T01:40:58.771Z,4.25
2019-02-19T01:41:58.743Z,4.25
2019-02-19T01:42:59.087Z,4.25
2019-02-19T01:43:58.817Z,4.25
2019-02-19T01:44:58.869Z,4.31
2019-02-19T01:45:58.588Z,4.31
2019-02-19T01:46:58.820Z,4.31
2019-02-19T01:47:59.027Z,4.37
2019-02-19T01:48:58.719Z,4.37
2019-02-19T01:49:59.850Z,4.31
2019-02-19T01:50:59.250Z,4.37
2019-02-19T01:51:59.130Z,4.31
2019-02-19T01:52:58.784Z,4.37
2019-02-19T01:53:59.246Z,4.31
2019-02-19T01:54:59.060Z,4.25
2019-02-19T01:55:59.078Z,4.25
2019-02-19T01:56:59.074Z,4.19
2019-02-19T01:58:00.559Z,4.25
2019-02-19T01:58:58.706Z,4.19
2019-02-19T01:59:59.364Z,4.25
2019-02-19T02:00:58.688Z,4.25
2019-02-19T02:01:58.884Z,4.12
2019-02-19T02:02:59.025Z,4.12
2019-02-19T02:03:59.114Z,4.12
2019-02-19T02:04:59.136Z,4.06
2019-02-19T02:05:59.246Z,4.12
2019-02-19T02:06:58.835Z,4.06
2019-02-19T02:07:59.059Z,4.06
2019-02-19T02:09:00.553Z,4.06
2019-02-19T02:09:58.786Z,4.06
2019-02-19T02:10:58.696Z,4.06
2019-02-19T02:11:59.179Z,4.06
2019-02-19T02:12:58.769Z,4.06
2019-02-19T02:13:58.783Z,4.06
2019-02-19T02:14:58.737Z,4.06
2019-02-19T02:15:58.807Z,4.06
2019-02-19T02:16:59.102Z,4.06
2019-02-19T02:17:58.682Z,4.06
2019-02-19T02:18:58.774Z,3.94
2019-02-19T02:19:59.057Z,3.94
2019-02-19T02:20:59.753Z,3.94
2019-02-19T02:21:59.201Z,3.94
2019-02-19T02:22:58.857Z,3.87
2019-02-19T02:23:58.883Z,3.94
2019-02-19T02:24:58.661Z,3.94
2019-02-19T02:25:58.955Z,3.94
2019-02-19T02:26:58.761Z,3.87
2019-02-19T02:27:59.068Z,3.94
2019-02-19T02:29:00.558Z,3.87
2019-02-19T02:29:59.385Z,3.87
2019-02-19T02:30:58.932Z,3.81
2019-02-19T02:31:58.836Z,3.81
2019-02-19T02:32:59.012Z,3.75
2019-02-19T02:33:58.934Z,3.81
2019-02-19T02:34:59.014Z,3.81
2019-02-19T02:35:58.705Z,3.81
2019-02-19T02:36:58.668Z,3.87
2019-02-19T02:37:59.488Z,3.81
2019-02-19T02:38:59.068Z,3.87
2019-02-19T02:39:58.794Z,3.87
2019-02-19T02:40:58.820Z,3.81
2019-02-19T02:41:58.773Z,3.81
2019-02-19T02:42:59.280Z,3.81
2019-02-19T02:43:58.665Z,3.81
2019-02-19T02:44:58.890Z,3.75
2019-02-19T02:45:59.178Z,3.75
2019-02-19T02:46:58.701Z,3.75
2019-02-19T02:48:00.555Z,3.75
2019-02-19T02:48:59.106Z,3.75
2019-02-19T02:49:58.463Z,3.75
2019-02-19T02:50:58.649Z,3.75
2019-02-19T02:51:58.830Z,3.75
2019-02-19T02:52:58.928Z,3.75
2019-02-19T02:53:58.750Z,3.75
2019-02-19T02:54:59.146Z,3.75
2019-02-19T02:55:58.871Z,3.75
2019-02-19T02:56:58.919Z,3.75
2019-02-19T02:57:58.969Z,3.75
2019-02-19T02:58:58.993Z,3.75
2019-02-19T02:59:58.865Z,3.81
2019-02-19T03:01:00.519Z,3.81
2019-02-19T03:01:58.875Z,3.75
2019-02-19T03:02:58.626Z,3.75
2019-02-19T03:03:59.220Z,3.81
2019-02-19T03:04:59.503Z,3.81
2019-02-19T03:05:59.000Z,3.81
2019-02-19T03:06:58.738Z,3.75
2019-02-19T03:07:59.152Z,3.81
2019-02-19T03:08:58.428Z,3.81
2019-02-19T03:09:59.075Z,3.81
2019-02-19T03:10:59.023Z,3.81
2019-02-19T03:11:59.481Z,3.75
2019-02-19T03:12:58.676Z,3.69
2019-02-19T03:13:58.717Z,3.69
2019-02-19T03:14:58.649Z,3.69
2019-02-19T03:16:03.029Z,3.69
2019-02-19T03:17:00.474Z,3.62
2019-02-19T03:17:58.754Z,3.62
2019-02-19T03:18:58.666Z,3.69
2019-02-19T03:19:58.927Z,3.75
2019-02-19T03:20:58.838Z,3.69
2019-02-19T03:21:58.696Z,3.69
2019-02-19T03:22:58.768Z,3.62
2019-02-19T03:23:58.606Z,3.62
2019-02-19T03:24:58.587Z,3.62
2019-02-19T03:25:59.158Z,3.56
2019-02-19T03:26:59.895Z,3.62
2019-02-19T03:27:58.628Z,3.56
2019-02-19T03:28:58.596Z,3.56
2019-02-19T03:29:58.569Z,3.56
2019-02-19T03:30:59.347Z,3.62
2019-02-19T03:31:59.124Z,3.62
2019-02-19T03:32:58.869Z,3.62
2019-02-19T03:34:00.474Z,3.62
2019-02-19T03:34:58.912Z,3.62
2019-02-19T03:35:59.462Z,3.62
2019-02-19T03:36:58.636Z,3.62
2019-02-19T03:37:59.185Z,3.62
2019-02-19T03:38:58.859Z,3.69
2019-02-19T03:39:59.326Z,3.69
2019-02-19T03:40:58.803Z,3.69
2019-02-19T03:41:58.842Z,3.69
2019-02-19T03:42:58.846Z,3.69
2019-02-19T03:43:58.539Z,3.69
2019-02-19T03:44:58.701Z,3.62
2019-02-19T03:45:58.774Z,3.62
2019-02-19T03:46:58.690Z,3.62
2019-02-19T03:48:00.436Z,3.62
2019-02-19T03:48:58.888Z,3.62
2019-02-19T03:49:58.914Z,3.62
2019-02-19T03:50:58.903Z,3.62
2019-02-19T03:51:58.535Z,3.56
2019-02-19T03:52:58.839Z,3.56
2019-02-19T03:53:58.838Z,3.56
2019-02-19T03:54:58.716Z,3.56
2019-02-19T03:55:58.621Z,3.56
2019-02-19T03:56:58.635Z,3.56
2019-02-19T03:57:58.614Z,3.56
2019-02-19T03:58:58.589Z,3.56
2019-02-19T03:59:58.876Z,3.62
2019-02-19T04:01:00.402Z,3.62
2019-02-19T04:01:58.698Z,3.62
2019-02-19T04:02:59.822Z,3.62
2019-02-19T04:04:00.409Z,3.62
2019-02-19T04:04:59.136Z,3.62
2019-02-19T04:05:58.787Z,3.62
2019-02-19T04:06:58.727Z,3.62
2019-02-19T04:07:58.738Z,3.69
2019-02-19T04:08:59.236Z,3.69
2019-02-19T04:09:59.331Z,3.69
2019-02-19T04:10:59.474Z,3.69
2019-02-19T04:11:59.165Z,3.69
2019-02-19T04:12:58.875Z,3.69
2019-02-19T04:13:59.409Z,3.62
2019-02-19T04:14:58.511Z,3.69
2019-02-19T04:15:58.858Z,3.62
2019-02-19T04:17:00.342Z,3.62
2019-02-19T04:17:58.323Z,3.62
2019-02-19T04:19:00.382Z,3.56
2019-02-19T04:19:58.840Z,3.56
2019-02-19T04:20:58.645Z,3.56
2019-02-19T04:21:58.642Z,3.62
2019-02-19T04:23:00.339Z,3.56
2019-02-19T04:23:59.021Z,3.62
2019-02-19T04:24:59.036Z,3.62
2019-02-19T04:25:58.954Z,3.62
2019-02-19T04:26:58.832Z,3.62
2019-02-19T04:27:58.505Z,3.62
2019-02-19T04:28:58.751Z,3.62
2019-02-19T04:29:59.150Z,3.5
2019-02-19T04:30:58.396Z,3.44
2019-02-19T04:32:00.347Z,3.44
2019-02-19T04:32:58.640Z,3.37
2019-02-19T04:33:58.641Z,3.37
2019-02-19T04:34:58.690Z,3.37
2019-02-19T04:35:58.586Z,3.31
2019-02-19T04:36:58.666Z,3.25
2019-02-19T04:38:00.351Z,3.25
2019-02-19T04:38:59.006Z,3.25
2019-02-19T04:39:58.662Z,3.19
2019-02-19T04:40:58.712Z,3.25
2019-02-19T04:41:58.737Z,3.25
2019-02-19T04:42:58.475Z,3.25
2019-02-19T04:43:58.833Z,3.31
2019-02-19T04:44:58.717Z,3.31
2019-02-19T04:45:59.054Z,3.31
2019-02-19T04:46:58.744Z,3.31
2019-02-19T04:47:59.299Z,3.31
2019-02-19T04:48:58.634Z,3.31
2019-02-19T04:50:00.447Z,3.37
2019-02-19T04:50:58.506Z,3.31
2019-02-19T04:51:59.130Z,3.31
2019-02-19T04:52:58.309Z,3.31
2019-02-19T04:53:58.793Z,3.25
2019-02-19T04:54:58.750Z,3.31
2019-02-19T04:55:58.551Z,3.31
2019-02-19T04:56:58.664Z,3.31
2019-02-19T04:57:58.584Z,3.37
2019-02-19T04:58:59.364Z,3.25
2019-02-19T04:59:58.910Z,3.37
2019-02-19T05:00:58.679Z,3.31
2019-02-19T05:01:58.522Z,3.31
2019-02-19T05:02:58.477Z,3.37
2019-02-19T05:03:58.488Z,3.31
2019-02-19T05:05:00.548Z,3.31
2019-02-19T05:06:00.335Z,3.31
2019-02-19T05:06:58.533Z,3.31
2019-02-19T05:07:58.501Z,3.25
2019-02-19T05:08:58.431Z,3.25
2019-02-19T05:09:58.693Z,3.25
2019-02-19T05:10:58.538Z,3.19
2019-02-19T05:11:58.484Z,3.19
2019-02-19T05:12:58.640Z,3.19
2019-02-19T05:13:59.075Z,3.12
2019-02-19T05:14:58.779Z,3.12
2019-02-19T05:15:58.636Z,3.12
2019-02-19T05:16:58.546Z,3.12
2019-02-19T05:17:58.695Z,3.06
2019-02-19T05:18:58.460Z,3
2019-02-19T05:19:58.687Z,3
2019-02-19T05:20:58.523Z,3.06
2019-02-19T05:21:58.253Z,3.06
2019-02-19T05:22:58.498Z,3.06
2019-02-19T05:23:58.815Z,3.12
2019-02-19T05:24:58.733Z,3.06
2019-02-19T05:25:58.667Z,3.12
2019-02-19T05:26:58.548Z,3.06
2019-02-19T05:27:59.279Z,3.12
2019-02-19T05:28:58.470Z,3.19
2019-02-19T05:29:58.662Z,3.19
2019-02-19T05:30:58.583Z,3.25
2019-02-19T05:31:58.817Z,3.19
2019-02-19T05:32:58.532Z,3.19
2019-02-19T05:33:58.580Z,3.25
2019-02-19T05:34:59.055Z,3.19
2019-02-19T05:35:58.926Z,3.25
2019-02-19T05:36:58.529Z,3.25
2019-02-19T05:37:58.438Z,3.25
2019-02-19T05:38:59.477Z,3.25
2019-02-19T05:39:58.628Z,3.25
2019-02-19T05:40:58.594Z,3.25
2019-02-19T05:41:58.381Z,3.19
2019-02-19T05:42:58.559Z,3.25
2019-02-19T05:43:58.384Z,3.19
2019-02-19T05:44:58.616Z,3.19
2019-02-19T05:45:58.510Z,3.12
2019-02-19T05:46:58.558Z,3.12
2019-02-19T05:48:00.258Z,3.19
2019-02-19T05:49:00.232Z,3.12
2019-02-19T05:49:58.615Z,3.19
2019-02-19T05:50:58.672Z,3.12
2019-02-19T05:51:58.448Z,3.12
2019-02-19T05:52:58.799Z,3.12
2019-02-19T05:53:58.480Z,3.12
2019-02-19T05:54:58.520Z,3.19
2019-02-19T05:55:58.455Z,3.12
2019-02-19T05:56:59.138Z,3.12
2019-02-19T05:57:58.368Z,3.19
2019-02-19T05:58:58.614Z,3.19
2019-02-19T05:59:59.770Z,3.19
2019-02-19T06:00:58.655Z,3.25
2019-02-19T06:01:58.514Z,3.25
2019-02-19T06:02:58.751Z,3.25
2019-02-19T06:03:58.341Z,3.25
2019-02-19T06:04:58.663Z,3.25
2019-02-19T06:05:58.572Z,3.31
2019-02-19T06:06:58.409Z,3.31
2019-02-19T06:07:58.796Z,3.31
2019-02-19T06:08:59.900Z,3.37
2019-02-19T06:09:58.718Z,3.31
2019-02-19T06:10:58.841Z,3.37
2019-02-19T06:11:58.976Z,3.37
2019-02-19T06:12:58.465Z,3.37
2019-02-19T06:13:58.716Z,3.37
2019-02-19T06:14:58.737Z,3.37
2019-02-19T06:15:59.304Z,3.37
2019-02-19T06:16:59.217Z,3.44
2019-02-19T06:17:59.028Z,3.44
2019-02-19T06:18:59.871Z,3.44
2019-02-19T06:19:58.662Z,3.5
2019-02-19T06:20:58.600Z,3.5
2019-02-19T06:21:58.443Z,3.44
2019-02-19T06:22:58.922Z,3.5
2019-02-19T06:23:58.361Z,3.5
2019-02-19T06:24:58.502Z,3.5
2019-02-19T06:25:58.715Z,3.5
2019-02-19T06:26:58.414Z,3.56
2019-02-19T06:27:58.710Z,3.56
2019-02-19T06:28:58.335Z,3.56
2019-02-19T06:29:58.447Z,3.56
2019-02-19T06:30:58.462Z,3.62
2019-02-19T06:31:58.415Z,3.62
2019-02-19T06:32:58.993Z,3.62
2019-02-19T06:33:58.429Z,3.62
2019-02-19T06:34:59.569Z,3.69
2019-02-19T06:35:58.673Z,3.69
2019-02-19T06:36:58.535Z,3.62
2019-02-19T06:37:58.359Z,3.69
2019-02-19T06:38:58.621Z,3.69
2019-02-19T06:40:00.038Z,3.69
2019-02-19T06:40:59.943Z,3.69
2019-02-19T06:41:58.540Z,3.69
2019-02-19T06:42:58.288Z,3.69
2019-02-19T06:43:58.757Z,3.69
2019-02-19T06:45:00.369Z,3.75
2019-02-19T06:45:58.532Z,3.69
2019-02-19T06:47:07.389Z,3.75
2019-02-19T06:47:58.299Z,3.75
2019-02-19T06:48:58.569Z,3.69
2019-02-19T06:49:58.696Z,3.75
2019-02-19T06:50:58.493Z,3.75
2019-02-19T06:51:58.441Z,3.75
2019-02-19T06:52:59.108Z,3.75
2019-02-19T06:53:58.314Z,3.75
2019-02-19T06:54:58.497Z,3.81
2019-02-19T06:55:58.266Z,3.81
2019-02-19T06:56:58.305Z,3.81
2019-02-19T06:57:58.525Z,3.75
2019-02-19T06:58:58.310Z,3.81
2019-02-19T06:59:58.403Z,3.81
2019-02-19T07:00:58.769Z,3.81
2019-02-19T07:01:59.160Z,3.81
2019-02-19T07:02:58.449Z,3.81
2019-02-19T07:03:58.663Z,3.81
2019-02-19T07:04:58.541Z,3.81
2019-02-19T07:06:00.138Z,3.81
2019-02-19T07:06:58.379Z,3.87
2019-02-19T07:07:58.375Z,3.87
2019-02-19T07:08:58.519Z,3.87
2019-02-19T07:09:58.655Z,3.87
2019-02-19T07:10:58.665Z,3.94
2019-02-19T07:11:59.178Z,3.87
2019-02-19T07:12:58.523Z,3.87
2019-02-19T07:13:58.575Z,3.94
2019-02-19T07:14:58.257Z,3.94
2019-02-19T07:15:59.558Z,3.87
2019-02-19T07:16:58.295Z,3.94
2019-02-19T07:17:58.269Z,3.94
2019-02-19T07:18:58.654Z,3.94
2019-02-19T07:19:58.383Z,3.94
2019-02-19T07:20:58.426Z,3.87
2019-02-19T07:21:58.561Z,3.87
2019-02-19T07:22:59.185Z,3.87
2019-02-19T07:24:05.024Z,3.94
2019-02-19T07:24:58.441Z,3.94
2019-02-19T07:25:58.606Z,3.94
2019-02-19T07:26:58.249Z,3.94
2019-02-19T07:27:58.495Z,4
2019-02-19T07:28:58.335Z,4
2019-02-19T07:29:58.279Z,4
2019-02-19T07:30:58.262Z,4.06
2019-02-19T07:31:58.415Z,4.06
2019-02-19T07:32:58.352Z,4.06
2019-02-19T07:33:58.377Z,4.06
2019-02-19T07:34:58.666Z,4.12
2019-02-19T07:35:58.871Z,4.19
2019-02-19T07:36:58.872Z,4.19
2019-02-19T07:37:58.360Z,4.19
2019-02-19T07:38:58.364Z,4.19
2019-02-19T07:39:58.512Z,4.25
2019-02-19T07:40:58.507Z,4.25
2019-02-19T07:41:59.079Z,4.31
2019-02-19T07:42:58.236Z,4.31
2019-02-19T07:43:58.410Z,4.31
2019-02-19T07:45:00.029Z,4.31
2019-02-19T07:45:59.745Z,4.37
2019-02-19T07:46:58.745Z,4.31
2019-02-19T07:47:58.778Z,4.37
2019-02-19T07:48:58.376Z,4.37
2019-02-19T07:49:58.174Z,4.37
2019-02-19T07:50:58.251Z,4.37
2019-02-19T07:51:58.455Z,4.37
2019-02-19T07:52:58.362Z,4.44
2019-02-19T07:53:58.253Z,4.37
2019-02-19T07:54:58.335Z,4.44
2019-02-19T07:55:58.216Z,4.37
2019-02-19T07:56:58.391Z,4.44
2019-02-19T07:57:58.309Z,4.44
2019-02-19T07:58:58.218Z,4.44
2019-02-19T07:59:58.417Z,4.5
2019-02-19T08:00:58.176Z,4.5
2019-02-19T08:01:59.442Z,4.56
2019-02-19T08:02:58.192Z,4.5
2019-02-19T08:03:58.325Z,4.56
2019-02-19T08:05:00.048Z,4.62
2019-02-19T08:05:59.062Z,4.56
2019-02-19T08:06:58.001Z,4.62
2019-02-19T08:07:58.132Z,4.62
2019-02-19T08:08:58.284Z,4.69
2019-02-19T08:09:58.434Z,4.69
2019-02-19T08:11:00.019Z,4.69
2019-02-19T08:11:58.143Z,4.75
2019-02-19T08:12:58.241Z,4.69
2019-02-19T08:14:00.008Z,4.75
2019-02-19T08:14:58.553Z,4.75
2019-02-19T08:15:58.326Z,4.75
2019-02-19T08:16:58.151Z,4.81
2019-02-19T08:17:58.539Z,4.75
2019-02-19T08:18:58.415Z,4.81
2019-02-19T08:19:58.184Z,4.81
2019-02-19T08:20:58.278Z,4.81
2019-02-19T08:21:58.140Z,4.81
2019-02-19T08:22:58.184Z,4.81
2019-02-19T08:23:58.161Z,4.87
2019-02-19T08:24:58.580Z,4.87
2019-02-19T08:25:58.128Z,4.87
2019-02-19T08:26:59.706Z,4.87
2019-02-19T08:27:59.932Z,4.87
2019-02-19T08:29:14.226Z,4.94
2019-02-19T08:29:59.223Z,4.94
2019-02-19T08:30:58.243Z,4.94
2019-02-19T08:31:58.234Z,5
2019-02-19T08:32:58.425Z,4.94
2019-02-19T08:33:58.119Z,5
2019-02-19T08:34:58.337Z,5
2019-02-19T08:35:58.522Z,5.06
2019-02-19T08:36:58.231Z,5
2019-02-19T08:37:59.963Z,5
2019-02-19T08:38:58.627Z,5.06
2019-02-19T08:39:58.872Z,5.06
2019-02-19T08:40:58.233Z,5.06
2019-02-19T08:41:57.950Z,5.12
2019-02-19T08:42:58.247Z,5.06
2019-02-19T08:43:58.835Z,5.12
2019-02-19T08:44:58.118Z,5.12
2019-02-19T08:45:58.190Z,5.12
2019-02-19T08:46:58.218Z,5.12
2019-02-19T08:47:58.401Z,5.19
2019-02-19T08:48:58.119Z,5.19
2019-02-19T08:49:59.092Z,5.19
2019-02-19T08:50:58.667Z,5.19
2019-02-19T08:51:58.201Z,5.19
2019-02-19T08:52:58.726Z,5.19
2019-02-19T08:53:58.359Z,5.25
2019-02-19T08:54:59.061Z,5.19
2019-02-19T08:55:58.213Z,5.25
2019-02-19T08:56:58.390Z,5.25
2019-02-19T08:57:58.437Z,5.31
2019-02-19T08:58:58.407Z,5.25
2019-02-19T08:59:58.427Z,5.25
2019-02-19T09:00:58.532Z,5.31
2019-02-19T09:01:58.298Z,5.31
2019-02-19T09:02:58.171Z,5.31
2019-02-19T09:03:59.946Z,5.31
2019-02-19T09:04:58.191Z,5.31
2019-02-19T09:05:58.337Z,5.37
2019-02-19T09:06:58.096Z,5.31
2019-02-19T09:07:58.310Z,5.31
2019-02-19T09:08:59.928Z,5.37
2019-02-19T09:09:58.498Z,5.37
2019-02-19T09:10:58.792Z,5.37
2019-02-19T09:11:59.807Z,5.44
2019-02-19T09:12:58.168Z,5.5
2019-02-19T09:13:58.142Z,5.44
2019-02-19T09:14:59.916Z,5.5
2019-02-19T09:15:58.545Z,5.56
2019-02-19T09:16:59.908Z,5.56
2019-02-19T09:17:58.138Z,5.62
2019-02-19T09:18:58.632Z,5.56
2019-02-19T09:19:59.963Z,5.69
2019-02-19T09:20:58.131Z,5.69
2019-02-19T09:21:58.541Z,5.69
2019-02-19T09:22:58.353Z,5.75
2019-02-19T09:23:58.821Z,5.75
2019-02-19T09:24:59.286Z,5.75
2019-02-19T09:25:58.384Z,5.75
2019-02-19T09:26:58.194Z,5.75
2019-02-19T09:27:58.059Z,5.81
2019-02-19T09:28:58.519Z,5.81
2019-02-19T09:29:58.199Z,5.87
2019-02-19T09:30:58.157Z,5.87
2019-02-19T09:31:58.245Z,5.87
2019-02-19T09:33:00.018Z,5.94
2019-02-19T09:33:58.259Z,5.94
2019-02-19T09:34:59.930Z,6
2019-02-19T09:35:59.887Z,5.94
2019-02-19T09:36:58.100Z,5.94
2019-02-19T09:37:58.189Z,6
2019-02-19T09:38:58.880Z,6
2019-02-19T09:39:58.296Z,6
2019-02-19T09:40:58.196Z,6
2019-02-19T09:41:58.229Z,6
2019-02-19T09:42:58.219Z,6
2019-02-19T09:43:58.173Z,6
2019-02-19T09:44:58.607Z,6.06
2019-02-19T09:45:59.384Z,6.06
2019-02-19T09:46:59.083Z,6.06
2019-02-19T09:48:01.934Z,6.12
2019-02-19T09:48:58.407Z,6.12
2019-02-19T09:49:58.336Z,6.19
2019-02-19T09:50:58.268Z,6.19
2019-02-19T09:51:58.039Z,6.19
2019-02-19T09:53:00.683Z,6.25
2019-02-19T09:53:59.856Z,6.25
2019-02-19T09:54:59.575Z,6.25
2019-02-19T09:55:58.370Z,6.25
2019-02-19T09:56:58.379Z,6.31
2019-02-19T09:57:59.894Z,6.31
2019-02-19T09:58:58.413Z,6.31
2019-02-19T09:59:58.783Z,6.31
2019-02-19T10:00:58.192Z,6.37
2019-02-19T10:01:58.398Z,6.37
2019-02-19T10:02:58.298Z,6.37
2019-02-19T10:03:58.760Z,6.37
2019-02-19T10:04:58.129Z,6.44
2019-02-19T10:05:58.114Z,6.44
2019-02-19T10:06:59.843Z,6.44
2019-02-19T10:07:58.434Z,6.44
2019-02-19T10:08:59.690Z,6.5
2019-02-19T10:09:58.390Z,6.5
2019-02-19T10:10:58.254Z,6.5
2019-02-19T10:11:58.298Z,6.56
2019-02-19T10:12:58.164Z,6.56
2019-02-19T10:13:58.166Z,6.56
2019-02-19T10:14:58.139Z,6.62
2019-02-19T10:15:59.434Z,6.62
2019-02-19T10:16:58.058Z,6.69
2019-02-19T10:17:58.089Z,6.62
2019-02-19T10:18:59.014Z,6.62
2019-02-19T10:19:58.180Z,6.69
2019-02-19T10:21:00.038Z,6.62
2019-02-19T10:21:58.245Z,6.69
2019-02-19T10:22:58.154Z,6.69
2019-02-19T10:23:58.557Z,6.69
2019-02-19T10:24:57.952Z,6.69
2019-02-19T10:25:58.376Z,6.69
2019-02-19T10:26:58.118Z,6.69
2019-02-19T10:27:58.078Z,6.69
2019-02-19T10:28:58.289Z,6.75
2019-02-19T10:29:58.385Z,6.75
2019-02-19T10:30:58.125Z,6.69
2019-02-19T10:31:58.206Z,6.75
2019-02-19T10:32:57.782Z,6.69
2019-02-19T10:33:58.298Z,6.75
2019-02-19T10:34:58.236Z,6.75
2019-02-19T10:35:58.209Z,6.75
2019-02-19T10:36:59.438Z,6.75
2019-02-19T10:37:59.278Z,6.75
2019-02-19T10:38:58.337Z,6.75
2019-02-19T10:39:58.246Z,6.81
2019-02-19T10:40:58.137Z,6.75
2019-02-19T10:41:58.461Z,6.81
2019-02-19T10:42:58.190Z,6.81
2019-02-19T10:43:59.128Z,6.81
2019-02-19T10:44:58.384Z,6.87
2019-02-19T10:45:58.379Z,6.81
2019-02-19T10:46:58.079Z,6.87
2019-02-19T10:47:58.283Z,6.87
2019-02-19T10:48:59.826Z,6.87
2019-02-19T10:49:58.210Z,6.87
2019-02-19T10:50:58.324Z,6.87
2019-02-19T10:51:59.055Z,6.94
2019-02-19T10:52:58.062Z,6.87
2019-02-19T10:53:58.112Z,6.87
2019-02-19T10:54:58.136Z,6.94
2019-02-19T10:55:58.159Z,6.94
2019-02-19T10:56:58.238Z,7
2019-02-19T10:57:58.159Z,7
2019-02-19T10:58:58.864Z,6.94
2019-02-19T10:59:58.110Z,7
2019-02-19T11:00:59.755Z,7.06
2019-02-19T11:01:58.586Z,7.06
2019-02-19T11:02:58.042Z,7.06
2019-02-19T11:03:59.742Z,7.12
2019-02-19T11:04:57.921Z,7.19
2019-02-19T11:05:58.021Z,7.19
2019-02-19T11:06:58.366Z,7.19
2019-02-19T11:07:58.164Z,7.19
2019-02-19T11:08:58.362Z,7.19
2019-02-19T11:09:58.296Z,7.19
2019-02-19T11:10:58.176Z,7.19
2019-02-19T11:11:58.401Z,7.25
2019-02-19T11:12:58.200Z,7.25
2019-02-19T11:13:58.172Z,7.25
2019-02-19T11:14:58.180Z,7.31
2019-02-19T11:15:58.085Z,7.31
2019-02-19T11:16:57.945Z,7.37
2019-02-19T11:17:58.922Z,7.44
2019-02-19T11:18:57.902Z,7.44
2019-02-19T11:19:59.179Z,7.5
2019-02-19T11:20:59.109Z,7.5
2019-02-19T11:21:59.714Z,7.5
2019-02-19T11:22:59.033Z,7.5
2019-02-19T11:23:58.235Z,7.56
2019-02-19T11:24:58.134Z,7.56
2019-02-19T11:25:57.925Z,7.62
2019-02-19T11:26:58.150Z,7.62
2019-02-19T11:27:59.699Z,7.62
2019-02-19T11:28:59.707Z,7.62
2019-02-19T11:29:58.943Z,7.69
2019-02-19T11:30:57.871Z,7.69
2019-02-19T11:31:58.280Z,7.75
2019-02-19T11:32:57.989Z,7.75
2019-02-19T11:33:58.121Z,7.75
2019-02-19T11:34:58.085Z,7.87
2019-02-19T11:35:58.209Z,7.87
2019-02-19T11:36:58.015Z,7.94
2019-02-19T11:37:59.154Z,7.94
2019-02-19T11:38:58.022Z,7.94
2019-02-19T11:39:59.733Z,8
2019-02-19T11:40:58.132Z,8
2019-02-19T11:41:59.167Z,8.06
2019-02-19T11:42:59.749Z,8.06
2019-02-19T11:43:59.681Z,8.06
2019-02-19T11:44:58.313Z,8.06
2019-02-19T11:45:58.861Z,8.06
2019-02-19T11:46:57.673Z,8.13
2019-02-19T11:47:57.684Z,8.19
2019-02-19T11:48:57.874Z,8.25
2019-02-19T11:49:58.134Z,8.25
2019-02-19T11:50:58.146Z,8.31
2019-02-19T11:51:58.204Z,8.31
2019-02-19T11:52:58.121Z,8.31
2019-02-19T11:53:58.954Z,8.38
2019-02-19T11:54:57.896Z,8.38
2019-02-19T11:55:58.651Z,8.38
2019-02-19T11:56:57.894Z,8.44
2019-02-19T11:57:58.138Z,8.44
2019-02-19T11:58:58.207Z,8.5
2019-02-19T11:59:57.843Z,8.56
2019-02-19T12:00:57.922Z,8.56
2019-02-19T12:01:59.676Z,8.56
2019-02-19T12:02:58.685Z,8.56
2019-02-19T12:03:57.643Z,8.63
2019-02-19T12:04:59.658Z,8.63
2019-02-19T12:05:58.220Z,8.63
2019-02-19T12:06:57.851Z,8.63
2019-02-19T12:07:58.151Z,8.69
2019-02-19T12:08:57.876Z,8.69
2019-02-19T12:09:58.705Z,8.69
2019-02-19T12:10:59.085Z,8.69
2019-02-19T12:11:57.642Z,8.69
2019-02-19T12:12:58.271Z,8.69
2019-02-19T12:13:57.804Z,8.69
2019-02-19T12:14:57.866Z,8.69
2019-02-19T12:15:57.914Z,8.69
2019-02-19T12:16:58.228Z,8.75
2019-02-19T12:17:58.084Z,8.75
2019-02-19T12:18:57.984Z,8.75
2019-02-19T12:19:58.093Z,8.75
2019-02-19T12:20:58.152Z,8.75
2019-02-19T12:21:58.129Z,8.75
2019-02-19T12:22:58.627Z,8.69
2019-02-19T12:23:58.591Z,8.75
2019-02-19T12:24:58.502Z,8.75
2019-02-19T12:25:59.141Z,8.75
2019-02-19T12:26:57.917Z,8.75
2019-02-19T12:27:57.811Z,8.75
2019-02-19T12:28:58.658Z,8.69
2019-02-19T12:29:58.101Z,8.75
2019-02-19T12:30:58.171Z,8.75
2019-02-19T12:31:58.191Z,8.75
2019-02-19T12:32:57.848Z,8.75
2019-02-19T12:33:57.984Z,8.81
2019-02-19T12:34:57.810Z,8.75
2019-02-19T12:35:57.834Z,8.81
2019-02-19T12:36:57.850Z,8.81
2019-02-19T12:37:58.122Z,8.88
2019-02-19T12:38:58.125Z,8.88
2019-02-19T12:39:57.777Z,8.88
2019-02-19T12:40:58.203Z,8.88
2019-02-19T12:41:57.783Z,8.88
2019-02-19T12:42:57.766Z,8.88
2019-02-19T12:43:58.032Z,8.94
2019-02-19T12:44:58.787Z,8.94
2019-02-19T12:45:59.839Z,8.94
2019-02-19T12:46:59.617Z,8.94
2019-02-19T12:47:58.696Z,9
2019-02-19T12:48:59.131Z,9
2019-02-19T12:49:59.628Z,9
2019-02-19T12:50:58.209Z,9
2019-02-19T12:51:58.095Z,9
2019-02-19T12:52:57.845Z,9.06
2019-02-19T12:53:57.791Z,9.06
2019-02-19T12:54:58.339Z,9.06
2019-02-19T12:55:58.139Z,9.13
2019-02-19T12:56:57.869Z,9.13
2019-02-19T12:57:57.836Z,9.13
2019-02-19T12:58:57.985Z,9.13
2019-02-19T13:00:58.698Z,9.19
2019-02-19T13:01:57.723Z,9.25
2019-02-19T13:02:58.095Z,9.19
2019-02-19T13:03:57.790Z,9.25
2019-02-19T13:04:57.755Z,9.25
2019-02-19T13:05:57.900Z,9.25
2019-02-19T13:06:57.798Z,9.25
2019-02-19T13:07:58.207Z,9.31
2019-02-19T13:08:59.564Z,9.31
2019-02-19T13:09:58.758Z,9.31
2019-02-19T13:10:57.797Z,9.31
2019-02-19T13:11:57.846Z,9.31
2019-02-19T13:12:57.854Z,9.31
2019-02-19T13:13:57.830Z,9.38
2019-02-19T13:14:57.715Z,9.38
2019-02-19T13:15:58.156Z,9.44
2019-02-19T13:16:57.761Z,9.5
2019-02-19T13:17:59.575Z,9.44
2019-02-19T13:19:04.117Z,9.44
2019-02-19T13:19:57.802Z,9.5
2019-02-19T13:20:57.818Z,9.5
2019-02-19T13:21:58.250Z,9.5
2019-02-19T13:22:57.727Z,9.5
2019-02-19T13:23:57.759Z,9.56
2019-02-19T13:24:58.026Z,9.56
2019-02-19T13:25:57.532Z,9.56